Latest Weather Observations for Ballina

IDN60801

Issued at 4:32 pm EST Monday 31 August 2015 (issued every 30 minutes, with the page automatically refreshed every 10 minutes)

About weather observations | Map of weather stations | Latest weather observations for NSW | Other Formats
Station Details ID: 058198 Name: BALLINA AIRPORT AWS Lat: -28.84 Lon: 153.56 Height: 1.3 m
Data from the previous 72 hours. | See also: Recent months at Ballina
Date/Time
EST
Temp
°C
App
Temp
°C
Dew
Point
Rel
Hum
%
Delta-T
°C
Wind Press
QNH
hPa
Press
MSL
hPa
Rain
since 9 am
mm
Dir
 
Spd
km/h
Gust
km/h
Spd
kts
Gust
kts
31/04:30pm 18.2 14.9 9.5 57 4.6 SE 17 22 9 12 1013.5 1013.5 0.0
31/04:00pm 18.6 15.2 10.4 59 4.4 SSE 19 24 10 13 1013.1 1013.1 0.0
31/03:30pm 18.7 14.7 9.2 54 5.0 SSE 20 28 11 15 1013.0 1013.0 0.0
31/03:00pm 19.1 15.1 10.4 57 4.7 SSE 22 28 12 15 1013.2 1013.2 0.0
31/02:30pm 19.1 15.2 9.6 54 5.0 SSE 20 26 11 14 1013.3 1013.3 0.0
31/02:00pm 19.1 15.2 9.6 54 5.0 SE 20 26 11 14 1013.5 1013.5 0.0
31/01:30pm 19.5 16.0 10.8 57 4.7 SSE 20 26 11 14 1013.8 1013.8 0.0
31/01:00pm 19.0 14.7 9.2 53 5.1 SE 22 28 12 15 1014.1 1014.1 0.0
31/12:30pm 18.7 14.7 8.9 53 5.1 SSE 20 28 11 15 1014.4 1014.4 0.0
31/12:00pm 18.8 15.6 10.1 57 4.6 SSE 17 22 9 12 1014.7 1014.7 0.0
31/11:30am 18.4 14.9 8.9 54 4.9 SSE 17 24 9 13 1015.1 1015.1 0.0
31/11:00am 18.4 14.7 7.8 50 5.4 S 17 24 9 13 1015.7 1015.7 0.0
31/10:30am 18.8 16.0 10.1 57 4.6 SSW 15 20 8 11 1016.1 1016.1 0.0
31/10:00am 18.1 14.8 9.7 58 4.4 SSW 17 22 9 12 1016.3 1016.3 0.0
31/09:30am 17.6 14.6 9.2 58 4.4 SW 15 22 8 12 1016.4 1016.4 0.0
31/09:00am 17.2 14.2 9.4 60 4.1 SW 15 20 8 11 1016.5 1016.5 6.4
31/08:30am 16.4 13.4 9.3 63 3.7 WSW 15 20 8 11 1016.5 1016.5 6.4
31/08:00am 15.3 13.0 10.3 72 2.6 W 13 17 7 9 1016.5 1016.5 6.4
31/07:30am 13.7 11.6 9.6 76 2.1 WSW 11 15 6 8 1016.4 1016.4 6.4
31/07:00am 11.9 9.8 9.8 87 1.1 W 11 13 6 7 1016.4 1016.4 6.4
31/06:30am 10.7 7.7 9.3 91 0.7 W 15 17 8 9 1016.0 1016.0 6.4
31/06:00am 11.1 8.5 9.4 89 0.9 W 13 15 7 8 1015.7 1015.7 6.4
31/05:30am 11.7 9.6 9.9 89 0.9 W 11 13 6 7 1015.6 1015.6 6.4
31/05:00am 11.8 9.4 10.2 90 0.8 W 13 15 7 8 1015.5 1015.5 6.4
31/04:30am 11.3 9.2 9.9 91 0.7 W 11 13 6 7 1015.3 1015.3 6.4
31/04:00am 11.3 9.7 10.2 93 0.6 W 9 11 5 6 1015.2 1015.2 6.4
31/03:30am 11.8 10.3 10.5 92 0.7 W 9 11 5 6 1015.1 1015.1 6.4
31/03:00am 12.8 10.7 11.2 90 0.8 WSW 13 19 7 10 1015.3 1015.3 6.4
31/02:30am 13.3 12.7 12.4 94 0.5 WSW 7 9 4 5 1015.6 1015.6 6.4
31/02:00am 13.3 12.7 12.4 94 0.5 WSW 7 9 4 5 1015.7 1015.7 6.4
31/01:30am 13.4 11.7 12.3 93 0.6 W 13 19 7 10 1015.9 1015.9 6.4
31/01:00am 13.6 12.4 12.8 95 0.4 W 11 13 6 7 1016.0 1016.0 6.4
31/12:30am 14.0 13.0 13.4 96 0.3 W 11 13 6 7 1016.3 1016.3 6.4
31/12:00am 14.2 13.9 13.4 95 0.4 W 7 9 4 5 1016.5 1016.5 6.4
 
Date/Time
EST
Temp
°C
App
Temp
°C
Dew
Point
Rel
Hum
%
Delta-T
°C
Wind Press
QNH
hPa
Press
MSL
hPa
Rain
since 9 am
mm
Dir
 
Spd
km/h
Gust
km/h
Spd
kts
Gust
kts
30/11:30pm 14.2 13.5 13.2 94 0.6 SW 9 15 5 8 1016.6 1016.6 6.4
30/11:07pm 14.2 13.1 13.2 94 0.6 W 11 13 6 7 1016.5 1016.5 6.0
30/11:00pm 14.4 13.0 13.4 94 0.6 WNW 13 17 7 9 1016.4 1016.4 6.0
30/10:30pm 15.0 11.1 13.4 90 0.9 W 26 39 14 21 1016.4 1016.4 3.4
30/10:21pm 15.2 12.6 13.9 92 0.7 W 20 39 11 21 1016.4 1016.4 1.8
30/10:00pm 14.9 14.7 13.6 92 0.7 WNW 7 11 4 6 1016.3 1016.3 0.4
30/09:30pm 14.8 14.1 12.1 84 1.5 WSW 7 9 4 5 1016.4 1016.4 0.0
30/09:00pm 16.1 14.7 12.1 77 2.2 S 11 13 6 7 1016.4 1016.4 0.0
30/08:30pm 16.8 15.3 13.1 79 2.1 SSE 13 19 7 10 1016.4 1016.4 0.0
30/08:00pm 16.5 14.8 12.3 76 2.3 SSE 13 15 7 8 1016.1 1016.1 0.0
30/07:30pm 17.2 14.8 12.5 74 2.6 SSE 17 24 9 13 1015.9 1015.9 0.0
30/07:00pm 17.1 15.1 12.8 76 2.4 S 15 22 8 12 1015.6 1015.6 0.0
30/06:30pm 17.3 16.3 13.4 78 2.2 S 11 24 6 13 1015.3 1015.3 0.0
30/06:00pm 16.9 15.4 13.0 78 2.2 SSW 13 17 7 9 1015.1 1015.1 0.0
30/05:30pm 17.1 15.3 13.4 79 2.1 SSW 15 22 8 12 1014.8 1014.8 0.0
30/05:00pm 17.5 15.0 13.4 77 2.3 SSW 19 30 10 16 1014.6 1014.6 0.0
30/04:30pm 18.0 14.8 13.1 73 2.8 S 22 33 12 18 1014.3 1014.3 0.0
30/04:00pm 18.4 15.2 13.0 71 3.0 S 22 30 12 16 1014.3 1014.3 0.0
30/03:30pm 18.4 14.3 12.8 70 3.1 S 26 35 14 19 1014.2 1014.2 0.0
30/03:00pm 18.7 14.9 12.5 67 3.5 S 24 35 13 19 1014.4 1014.4 0.0
30/02:30pm 18.9 14.8 12.6 67 3.5 S 26 35 14 19 1014.5 1014.5 0.0
30/02:00pm 19.2 14.8 12.9 67 3.5 S 28 39 15 21 1014.6 1014.6 0.0
30/01:30pm 19.4 15.0 12.9 66 3.7 S 28 39 15 21 1014.9 1014.9 0.0
30/01:00pm 18.5 14.1 11.8 65 3.7 S 26 37 14 20 1015.2 1015.2 0.0
30/12:30pm 19.4 15.3 11.4 60 4.4 S 24 35 13 19 1015.4 1015.4 0.0
30/12:00pm 18.1 13.1 11.0 63 3.8 S 28 39 15 21 1015.9 1015.9 0.0
30/11:30am 18.6 14.2 10.4 59 4.4 SSW 24 37 13 20 1016.4 1016.4 0.0
30/11:00am 19.0 14.3 10.8 59 4.4 SSW 26 35 14 19 1016.8 1016.8 0.0
30/10:30am 18.3 13.7 11.1 63 3.9 SSW 26 39 14 21 1017.2 1017.2 0.0
30/10:00am 18.1 14.5 10.5 61 4.1 SSW 20 33 11 18 1017.4 1017.4 0.0
30/09:30am 18.1 14.9 11.2 64 3.7 SSW 19 28 10 15 1017.5 1017.5 0.0
30/09:00am 17.7 14.2 11.0 65 3.6 SW 20 32 11 17 1017.2 1017.2 0.0
30/08:30am 17.0 13.8 11.1 68 3.2 WSW 19 24 10 13 1017.4 1017.4 0.0
30/08:00am 16.7 14.5 12.0 74 2.6 WSW 15 19 8 10 1017.4 1017.4 0.0
30/07:30am 15.6 14.8 11.8 78 2.1 W 7 13 4 7 1017.1 1017.1 0.0
30/07:00am 14.5 13.5 12.2 86 1.2 WSW 9 11 5 6 1017.0 1017.0 0.0
30/06:30am 14.6 13.4 11.6 82 1.6 WSW 9 11 5 6 1016.6 1016.6 0.0
30/06:00am 14.3 13.4 12.5 89 1.0 WSW 9 13 5 7 1016.3 1016.3 0.0
30/05:30am 14.8 14.3 12.8 88 1.1 WSW 7 11 4 6 1016.1 1016.1 0.0
30/05:00am 15.0 15.0 13.5 91 0.8 NNW 6 7 3 4 1016.0 1016.0 0.0
30/04:30am 15.1 15.1 13.5 90 0.9 NNW 6 9 3 5 1016.0 1016.0 0.0
30/04:00am 15.1 15.2 14.0 93 0.6 N 6 7 3 4 1016.1 1016.1 0.0
30/03:30am 15.3 14.8 13.7 90 0.9 NNW 9 11 5 6 1016.1 1016.1 0.0
30/03:00am 15.2 14.7 13.7 91 0.8 NW 9 13 5 7 1016.4 1016.4 0.0
30/02:30am 15.1 15.0 14.0 93 0.6 N 7 9 4 5 1016.3 1016.3 0.0
30/02:00am 15.4 15.3 13.9 91 0.8 NNW 7 9 4 5 1017.4 1017.4 0.0
30/01:30am 15.3 14.9 14.0 92 0.7 NW 9 11 5 6 1017.5 1017.5 0.0
30/01:00am 15.6 15.6 14.1 91 0.8 N 7 9 4 5 1017.5 1017.5 0.0
30/12:30am 15.5 16.5 14.4 93 0.6 NW 2 7 1 4 1017.9 1017.9 0.0
30/12:00am 15.9 15.9 14.1 89 1.0 NW 7 7 4 4 1018.3 1018.3 0.0
 
Date/Time
EST
Temp
°C
App
Temp
°C
Dew
Point
Rel
Hum
%
Delta-T
°C
Wind Press
QNH
hPa
Press
MSL
hPa
Rain
since 9 am
mm
Dir
 
Spd
km/h
Gust
km/h
Spd
kts
Gust
kts
29/11:30pm 16.3 16.4 13.8 85 1.4 NNW 6 7 3 4 1018.5 1018.5 0.0
29/11:00pm 16.6 16.4 13.7 83 1.6 N 7 11 4 6 1018.6 1018.6 0.0
29/10:30pm 16.9 16.0 13.8 82 1.8 N 11 15 6 8 1019.0 1019.0 0.0
29/10:00pm 16.9 16.6 13.2 79 2.1 NW 7 13 4 7 1019.2 1019.2 0.0
29/09:30pm 17.1 15.6 13.2 78 2.2 N 13 20 7 11 1019.2 1019.2 0.0
29/09:00pm 16.7 16.0 13.2 80 2.0 NNW 9 13 5 7 1019.3 1019.3 0.0
29/08:30pm 17.0 16.2 12.9 77 2.3 NNE 9 13 5 7 1019.1 1019.1 0.0
29/08:00pm 17.2 16.3 12.5 74 2.6 N 9 13 5 7 1019.4 1019.4 0.0
29/07:30pm 17.3 16.0 12.4 73 2.7 N 11 15 6 8 1019.3 1019.3 0.0
29/07:00pm 17.3 16.0 12.4 73 2.7 NNE 11 17 6 9 1019.4 1019.4 0.0
29/06:30pm 17.6 16.4 12.7 73 2.7 NNE 11 15 6 8 1019.5 1019.5 0.0
29/06:00pm 17.7 16.4 12.6 72 2.8 NNE 11 13 6 7 1019.2 1019.2 0.0
29/05:30pm 17.7 16.4 12.4 71 2.9 NNE 11 15 6 8 1018.9 1018.9 0.0
29/05:00pm 18.1 17.3 13.0 72 2.9 NNE 9 15 5 8 1018.7 1018.7 0.0
29/04:30pm 18.6 18.4 13.7 73 2.8 NNE 7 11 4 6 1018.5 1018.5 0.0
29/04:00pm 18.9 17.9 13.5 71 3.1 NE 11 15 6 8 1018.8 1018.8 0.0
29/03:30pm 19.2 17.9 13.6 70 3.2 NE 13 20 7 11 1018.9 1018.9 0.0
29/03:00pm 18.9 16.5 12.6 67 3.5 NE 17 22 9 12 1019.0 1019.0 0.0
29/02:30pm 19.6 17.0 12.1 62 4.2 NE 17 22 9 12 1019.4 1019.4 0.0
29/02:00pm 19.5 16.5 12.0 62 4.2 ENE 19 24 10 13 1019.7 1019.7 0.0
29/01:30pm 20.0 17.5 12.3 61 4.3 ENE 17 22 9 12 1020.2 1020.2 0.0
29/01:00pm 20.7 18.1 12.1 58 4.8 ENE 17 20 9 11 1020.6 1020.6 0.0
29/12:30pm 20.9 18.5 12.6 59 4.7 ENE 17 22 9 12 1020.9 1020.9 0.0
29/12:00pm 20.7 18.2 11.1 54 5.3 ENE 15 24 8 13 1021.5 1021.5 0.0
29/11:30am 20.6 18.5 11.0 54 5.3 ENE 13 19 7 10 1022.1 1022.1 0.0
29/11:00am 20.4 19.6 11.1 55 5.1 ESE 6 13 3 7 1022.6 1022.6 0.0
29/10:30am 19.9 19.3 11.7 59 4.5 SE 6 9 3 5 1023.1 1023.1 0.0
29/10:00am 19.0 18.1 10.8 59 4.4 SW 6 9 3 5 1023.1 1023.1 0.0
29/09:30am 17.7 16.4 9.8 60 4.2 SW 7 13 4 7 1023.5 1023.5 0.0
29/09:00am 16.8 15.4 10.9 68 3.1 WSW 9 15 5 8 1023.7 1023.7 0.0
29/08:30am 14.9 13.2 9.7 71 2.7 WSW 9 11 5 6 1023.7 1023.7 0.0
29/08:00am 13.3 11.5 9.5 78 1.9 WSW 9 13 5 7 1023.7 1023.7 0.0
29/07:30am 11.3 11.5 10.4 94 0.5 CALM 0 0 0 0 1023.5 1023.5 0.0
29/07:00am 10.5 10.7 10.5 100 0.0 CALM 0 0 0 0 1023.2 1023.2 0.0
29/06:30am 8.9 8.7 8.9 100 0.0 CALM 0 0 0 0 1022.8 1022.8 0.0
29/06:00am 9.1 8.9 9.1 100 0.0 CALM 0 0 0 0 1022.6 1022.6 0.0
29/05:59am 9.0 8.8 9.0 100 0.0 CALM 0 0 0 0 1022.6 1022.6 0.0
29/05:47am 8.7 8.4 8.7 100 0.0 CALM 0 0 0 0 1022.5 1022.5 0.0
29/05:30am 8.5 8.2 8.5 100 0.0 CALM 0 0 0 0 1022.4 1022.4 0.0
29/05:00am 8.7 8.4 8.6 99 0.0 CALM 0 0 0 0 1022.2 1022.2 0.0
29/04:30am 8.8 8.5 8.7 99 0.0 CALM 0 0 0 0 1022.0 1022.0 0.0
29/04:00am 9.5 9.4 9.4 99 0.0 CALM 0 0 0 0 1021.7 1021.7 0.0
29/03:30am 9.9 9.8 9.6 98 0.1 CALM 0 0 0 0 1021.9 1021.9 0.0
29/03:00am 9.8 9.7 9.3 97 0.2 CALM 0 0 0 0 1022.0 1022.0 0.0
29/02:30am 10.2 9.8 9.7 97 0.3 WNW 2 7 1 4 1022.0 1022.0 0.0
29/02:00am 10.1 9.3 9.8 98 0.1 NW 4 7 2 4 1022.3 1022.3 0.0
29/01:30am 10.4 9.7 10.2 99 0.1 NNW 4 6 2 3 1022.2 1022.2 0.0
29/01:00am 9.7 9.6 9.4 98 0.1 CALM 0 0 0 0 1022.3 1022.3 0.0
29/12:30am 9.8 9.7 9.3 97 0.2 CALM 0 0 0 0 1022.7 1022.7 0.0
29/12:00am 10.5 10.5 9.9 96 0.3 CALM 0 0 0 0 1022.7 1022.7 0.0
 
Date/Time
EST
Temp
°C
App
Temp
°C
Dew
Point
Rel
Hum
%
Delta-T
°C
Wind Press
QNH
hPa
Press
MSL
hPa
Rain
since 9 am
mm
Dir
 
Spd
km/h
Gust
km/h
Spd
kts
Gust
kts
28/11:30pm 10.6 10.6 9.8 95 0.4 CALM 0 0 0 0 1022.6 1022.6 0.0
28/11:00pm 10.6 10.5 9.5 93 0.5 CALM 0 0 0 0 1022.6 1022.6 0.0
28/10:30pm 11.9 12.1 10.5 91 0.7 CALM 0 0 0 0 1022.7 1022.7 0.0
28/10:00pm 12.7 13.1 11.1 90 0.8 CALM 0 0 0 0 1022.5 1022.5 0.0
28/09:30pm 12.0 11.2 9.6 85 1.2 N 4 9 2 5 1022.8 1022.8 0.0
28/09:00pm 12.7 11.6 10.6 87 1.1 N 7 9 4 5 1022.5 1022.5 0.0
28/08:30pm 13.6 13.2 11.1 85 1.3 N 4 7 2 4 1022.3 1022.3 0.0
28/08:00pm 13.2 12.4 10.9 86 1.2 NNW 6 9 3 5 1021.8 1021.8 0.0
28/07:30pm 13.5 12.6 11.4 87 1.1 NNW 7 9 4 5 1021.6 1021.6 0.0
28/07:00pm 14.2 13.5 11.5 84 1.4 N 6 9 3 5 1021.0 1021.0 0.0
28/06:30pm 14.7 14.1 11.7 82 1.6 N 6 6 3 3 1020.7 1020.7 0.0
28/06:00pm 15.4 14.2 10.2 71 2.7 N 7 13 4 7 1020.1 1020.1 0.0
28/05:30pm 16.9 15.4 10.7 67 3.3 NNE 9 11 5 6 1019.9 1019.9 0.0
28/05:00pm 18.4 15.3 8.7 53 5.0 SE 15 20 8 11 1019.4 1019.4 0.0

Other Formats:

Comma delimited format used in spreadsheet applications
http://www.bom.gov.au/fwo/IDN60801/IDN60801.94596.axf

JavaScript Object Notation format (JSON) in row-major order
http://www.bom.gov.au/fwo/IDN60801/IDN60801.94596.json